Otsego, MI (49078)

3:30 PM EDT on August 30, 2015 (GMT -0400)
Browns Hay Farm | | Change Station
CLOSE
Current Station
Personal Weather Station
Location: ALLEGAN, MI
Elevation: 737 ft
Nearby Weather Stations

Elev 737 ft 42.52 °N, 85.77 °W | Updated 39 minutes ago

Overcast
Overcast
76.6 °F
Feels Like 78 °F
N
4.0
Wind Variable Wind from West
Gusts 9.0 mph

Today
High -- | Low -- °F
--% Chance of Precip.
Yesterday
High -- | Low -- °F
Precip. -- in
7:05 AM 8:20 PM
Full, 98% visible
Pressure 30.06 in
Visibility 10.0 miles
Clouds Few 1700 ft
Overcast 3500 ft
Heat Index 78 °F
Dew Point 68 °F
Humidity 74%
Rainfall 0.00 in
Snow Depth Not available.
UV 3 out of 12
Pollen 9.20 out of 12
Air Quality Not available.
Flu Activity Not available.
METAR KAZO 301853Z 21005KT 10SM FEW017 OVC035 24/19 A3007 RMK AO2 SLP177 T02390189
Pressure 30.06 in
Visibility 10.0 miles
Clouds Few 1700 ft
Overcast 3500 ft
Heat Index 78 °F
Dew Point 68 °F
Humidity 74%
Rainfall 0.00 in
Snow Depth Not available.
UV 3 out of 12
Pollen 9.20 out of 12
Air Quality Not available.
Flu Activity Not available.
METAR KAZO 301853Z 21005KT 10SM FEW017 OVC035 24/19 A3007 RMK AO2 SLP177 T02390189

10-Day Weather Forecast

×

Almanac

Astronomy

Aug. 30, 2015 Rise Set
Actual Time
Civil Twilight
Nautical Twilight
Astronomical Twilight
Moon
Length of Visible Light
Length of Day
Tomorrow will be .
, % of the Moon is Illuminated

Today's Extremes

State Highs State Lows

Community

WunderPhotos

Upload Photos

1,851,040 photos uploaded!

WunderBlogs® & News

Nearby

Air Quality

  Air Quality AQ Index Pollutant
Not available.

Snow Depth

Station Depth Elevation

Earthquake Activity

City Distance Mag. Time & Date
Minimum magnitude displayed is 2.5.

Coastal Water Temperatures

Place Temperature

Stations

Nearby Weather Stations

Station Location Temp. Windchill Dew Point Humidity Wind Precip. Elev Updated Type